createdAt,value
2019-04-30T00:00:34.749Z,21.70
2019-04-30T00:01:43.582Z,23.30
2019-04-30T00:02:35.651Z,22.50
2019-04-30T00:03:25.035Z,22.20
2019-04-30T00:04:17.527Z,22.77
2019-04-30T00:05:05.482Z,21.73
2019-04-30T00:05:53.863Z,23.57
2019-04-30T00:06:40.001Z,23.10
2019-04-30T00:07:26.564Z,22.70
2019-04-30T00:08:13.207Z,22.40
2019-04-30T00:08:59.594Z,24.33
2019-04-30T00:09:49.248Z,24.73
2019-04-30T00:10:41.058Z,25.07
2019-04-30T00:11:25.131Z,23.73
2019-04-30T00:12:11.859Z,23.17
2019-04-30T00:12:57.896Z,22.33
2019-04-30T00:13:45.930Z,23.07
2019-04-30T00:14:36.848Z,21.53
2019-04-30T00:15:19.807Z,22.97
2019-04-30T00:16:05.512Z,23.00
2019-04-30T00:16:51.667Z,23.60
2019-04-30T00:17:37.820Z,22.00
2019-04-30T00:18:25.467Z,23.13
2019-04-30T00:19:17.871Z,23.47
2019-04-30T00:20:00.101Z,22.80
2019-04-30T00:20:47.060Z,22.63
2019-04-30T00:21:32.967Z,22.27
2019-04-30T00:22:31.096Z,22.93
2019-04-30T00:23:07.296Z,22.43
2019-04-30T00:23:53.471Z,22.47
2019-04-30T00:24:39.867Z,24.23
2019-04-30T00:25:28.662Z,26.70
2019-04-30T00:26:16.974Z,23.20
2019-04-30T00:27:05.000Z,22.10
2019-04-30T00:27:51.397Z,22.13
2019-04-30T00:28:39.419Z,23.40
2019-04-30T00:29:30.203Z,22.67
2019-04-30T00:30:15.335Z,22.13
2019-04-30T00:31:01.179Z,23.10
2019-04-30T00:31:47.291Z,21.77
2019-04-30T00:32:38.178Z,24.43
2019-04-30T00:33:22.445Z,21.17
2019-04-30T00:34:08.347Z,22.80
2019-04-30T00:34:55.641Z,24.37
2019-04-30T00:35:42.445Z,22.90
2019-04-30T00:36:34.065Z,22.87
2019-04-30T00:37:18.751Z,23.23
2019-04-30T00:38:05.632Z,22.47
2019-04-30T00:38:51.810Z,25.07
2019-04-30T00:39:44.299Z,22.93
2019-04-30T00:40:30.237Z,24.47
2019-04-30T00:41:16.711Z,23.90
2019-04-30T00:42:04.924Z,22.53
2019-04-30T00:42:51.108Z,23.20
2019-04-30T00:43:37.803Z,24.67
2019-04-30T00:44:28.194Z,24.33
2019-04-30T00:45:13.031Z,24.40
2019-04-30T00:45:59.133Z,22.90
2019-04-30T00:46:48.011Z,22.23
2019-04-30T00:47:35.076Z,23.97
2019-04-30T00:48:29.517Z,23.97
2019-04-30T00:49:15.843Z,25.47
2019-04-30T00:50:00.100Z,24.50
2019-04-30T00:50:45.745Z,25.93
2019-04-30T00:51:31.894Z,25.67
2019-04-30T00:52:17.567Z,24.43
2019-04-30T00:53:05.936Z,25.93
2019-04-30T00:53:52.589Z,25.90
2019-04-30T00:54:38.732Z,26.00
2019-04-30T00:55:24.966Z,26.67
2019-04-30T00:56:11.051Z,25.57
2019-04-30T00:57:03.599Z,26.00
2019-04-30T00:57:47.448Z,25.00
2019-04-30T00:58:32.876Z,24.97
2019-04-30T00:59:18.656Z,22.90
2019-04-30T01:00:08.380Z,25.67
2019-04-30T01:01:09.017Z,26.50
2019-04-30T01:02:20.201Z,26.50
2019-04-30T01:03:09.346Z,26.80
2019-04-30T01:03:59.618Z,28.27
2019-04-30T01:04:48.236Z,26.77
2019-04-30T01:05:35.378Z,25.97
2019-04-30T01:06:26.879Z,29.30
2019-04-30T01:07:10.350Z,25.47
2019-04-30T01:07:56.666Z,26.37
2019-04-30T01:08:46.157Z,27.23
2019-04-30T01:09:32.440Z,26.93
2019-04-30T01:10:19.613Z,28.83
2019-04-30T01:11:09.557Z,28.00
2019-04-30T01:11:55.480Z,26.67
2019-04-30T01:12:47.022Z,26.13
2019-04-30T01:13:30.415Z,32.40
2019-04-30T01:14:16.402Z,28.23
2019-04-30T01:15:06.536Z,27.60
2019-04-30T01:15:52.636Z,28.80
2019-04-30T01:16:39.473Z,28.90
2019-04-30T01:17:25.722Z,28.67
2019-04-30T01:18:11.438Z,29.87
2019-04-30T01:18:58.592Z,28.37
2019-04-30T01:19:45.972Z,26.47
2019-04-30T01:20:40.531Z,26.73
2019-04-30T01:21:26.308Z,28.70
2019-04-30T01:22:12.586Z,27.47
2019-04-30T01:22:58.753Z,29.07
2019-04-30T01:23:51.779Z,28.57
2019-04-30T01:24:33.026Z,27.87
2019-04-30T01:25:20.710Z,29.70
2019-04-30T01:26:08.640Z,29.50
2019-04-30T01:26:54.556Z,28.20
2019-04-30T01:27:45.838Z,29.97
2019-04-30T01:28:28.971Z,29.27
2019-04-30T01:29:15.173Z,28.83
2019-04-30T01:30:02.095Z,32.83
2019-04-30T01:30:49.558Z,29.20
2019-04-30T01:31:37.416Z,28.67
2019-04-30T01:32:23.219Z,32.20
2019-04-30T01:33:09.832Z,31.83
2019-04-30T01:33:56.317Z,33.53
2019-04-30T01:34:44.269Z,31.33
2019-04-30T01:35:32.687Z,34.07
2019-04-30T01:36:19.309Z,29.73
2019-04-30T01:37:05.614Z,29.80
2019-04-30T01:37:51.627Z,29.77
2019-04-30T01:38:40.039Z,29.87
2019-04-30T01:39:31.576Z,30.50
2019-04-30T01:40:15.928Z,30.97
2019-04-30T01:41:02.094Z,31.63
2019-04-30T01:41:48.851Z,27.23
2019-04-30T01:42:35.187Z,31.13
2019-04-30T01:43:30.565Z,30.30
2019-04-30T01:44:12.162Z,30.67
2019-04-30T01:44:58.987Z,27.70
2019-04-30T01:45:44.975Z,29.37
2019-04-30T01:46:31.127Z,28.83
2019-04-30T01:47:21.546Z,28.70
2019-04-30T01:48:08.681Z,29.27
2019-04-30T01:48:52.586Z,28.53
2019-04-30T01:49:42.670Z,32.27
2019-04-30T01:50:26.431Z,29.50
2019-04-30T01:51:17.773Z,31.93
2019-04-30T01:52:02.422Z,32.83
2019-04-30T01:52:52.370Z,32.27
2019-04-30T01:53:38.901Z,32.70
2019-04-30T01:54:25.427Z,30.70
2019-04-30T01:55:12.034Z,30.27
2019-04-30T01:56:19.084Z,30.17
2019-04-30T01:57:31.246Z,29.10
2019-04-30T01:58:33.371Z,31.97
2019-04-30T01:59:23.232Z,30.53
2019-04-30T02:00:22.870Z,30.77
2019-04-30T02:01:13.776Z,33.10
2019-04-30T02:02:01.748Z,36.50
2019-04-30T02:02:49.536Z,29.00
2019-04-30T02:03:40.072Z,31.13
2019-04-30T02:04:26.503Z,31.03
2019-04-30T02:05:13.028Z,29.73
2019-04-30T02:05:59.658Z,28.73
2019-04-30T02:06:46.247Z,28.10
2019-04-30T02:07:32.596Z,29.30
2019-04-30T02:08:19.639Z,33.50
2019-04-30T02:09:06.495Z,31.47
2019-04-30T02:09:52.879Z,34.37
2019-04-30T02:10:40.392Z,34.47
2019-04-30T02:11:28.745Z,30.23
2019-04-30T02:12:14.949Z,33.43
2019-04-30T02:13:01.351Z,32.13
2019-04-30T02:13:49.155Z,31.10
2019-04-30T02:14:35.856Z,30.30
2019-04-30T02:15:22.348Z,31.53
2019-04-30T02:16:08.717Z,31.43
2019-04-30T02:16:54.841Z,32.37
2019-04-30T02:17:40.918Z,32.90
2019-04-30T02:18:26.726Z,31.47
2019-04-30T02:19:12.770Z,33.53
2019-04-30T02:19:59.295Z,33.30
2019-04-30T02:20:45.432Z,31.47
2019-04-30T02:21:33.316Z,30.33
2019-04-30T02:22:19.754Z,30.77
2019-04-30T02:23:05.619Z,34.73
2019-04-30T02:23:51.598Z,32.03
2019-04-30T02:24:38.677Z,31.30
2019-04-30T02:25:24.986Z,34.97
2019-04-30T02:26:11.048Z,33.60
2019-04-30T02:27:00.613Z,33.50
2019-04-30T02:27:48.949Z,33.40
2019-04-30T02:28:35.044Z,30.40
2019-04-30T02:29:21.103Z,31.33
2019-04-30T02:30:11.228Z,30.60
2019-04-30T02:30:56.552Z,31.93
2019-04-30T02:31:43.072Z,31.70
2019-04-30T02:32:30.381Z,34.57
2019-04-30T02:33:19.523Z,30.33
2019-04-30T02:34:14.268Z,31.50
2019-04-30T02:35:10.604Z,30.07
2019-04-30T02:36:16.429Z,31.20
2019-04-30T02:37:20.862Z,30.57
2019-04-30T02:38:15.331Z,29.43
2019-04-30T02:39:02.731Z,29.57
2019-04-30T02:39:50.279Z,28.83
2019-04-30T02:40:39.327Z,32.27
2019-04-30T02:41:29.302Z,32.43
2019-04-30T02:42:16.729Z,31.20
2019-04-30T02:43:03.202Z,30.20
2019-04-30T02:43:52.097Z,33.13
2019-04-30T02:44:40.988Z,31.07
2019-04-30T02:45:29.861Z,30.70
2019-04-30T02:46:19.055Z,30.50
2019-04-30T02:47:05.899Z,31.43
2019-04-30T02:47:52.790Z,32.00
2019-04-30T02:48:40.098Z,34.93
2019-04-30T02:49:30.277Z,32.27
2019-04-30T02:50:21.669Z,31.47
2019-04-30T02:51:09.933Z,33.93
2019-04-30T02:51:55.912Z,31.70
2019-04-30T02:52:42.550Z,29.57
2019-04-30T02:54:23.299Z,31.63
2019-04-30T02:55:11.423Z,33.93
2019-04-30T02:55:59.508Z,32.00
2019-04-30T02:56:50.699Z,31.70
2019-04-30T02:57:36.549Z,33.03
2019-04-30T02:58:22.797Z,30.50
2019-04-30T02:59:10.346Z,29.53
2019-04-30T03:00:15.485Z,29.53
2019-04-30T03:01:01.608Z,29.50
2019-04-30T03:01:50.246Z,31.37
2019-04-30T03:02:35.792Z,33.37
2019-04-30T03:03:25.114Z,31.87
2019-04-30T03:04:10.472Z,33.53
2019-04-30T03:04:56.849Z,31.20
2019-04-30T03:05:43.087Z,32.50
2019-04-30T03:06:30.419Z,31.80
2019-04-30T03:07:19.269Z,33.47
2019-04-30T03:08:04.568Z,31.40
2019-04-30T03:08:51.033Z,29.77
2019-04-30T03:09:39.379Z,32.20
2019-04-30T03:10:25.453Z,30.00
2019-04-30T03:11:11.771Z,30.23
2019-04-30T03:12:00.219Z,31.23
2019-04-30T03:12:45.561Z,31.93
2019-04-30T03:13:31.698Z,30.60
2019-04-30T03:14:20.088Z,31.50
2019-04-30T03:15:09.645Z,31.03
2019-04-30T03:15:55.234Z,30.60
2019-04-30T03:16:53.222Z,31.37
2019-04-30T03:17:46.430Z,30.57
2019-04-30T03:18:51.482Z,31.73
2019-04-30T03:20:03.578Z,31.60
2019-04-30T03:21:05.135Z,32.50
2019-04-30T03:21:55.151Z,30.97
2019-04-30T03:22:41.164Z,28.63
2019-04-30T03:23:29.397Z,30.37
2019-04-30T03:24:15.391Z,32.93
2019-04-30T03:25:01.888Z,31.13
2019-04-30T03:25:50.153Z,31.30
2019-04-30T03:26:35.935Z,31.17
2019-04-30T03:27:24.849Z,32.20
2019-04-30T03:28:10.060Z,30.90
2019-04-30T03:28:55.810Z,30.47
2019-04-30T03:29:42.128Z,30.63
2019-04-30T03:30:32.050Z,30.53
2019-04-30T03:31:16.358Z,29.30
2019-04-30T03:32:03.706Z,30.70
2019-04-30T03:32:56.017Z,30.80
2019-04-30T03:33:41.926Z,31.40
2019-04-30T03:34:26.518Z,30.33
2019-04-30T03:35:13.509Z,31.80
2019-04-30T03:36:02.226Z,32.07
2019-04-30T03:36:50.197Z,30.30
2019-04-30T03:37:35.037Z,30.90
2019-04-30T03:38:21.184Z,29.90
2019-04-30T03:39:10.389Z,31.27
2019-04-30T03:39:55.215Z,30.03
2019-04-30T03:40:41.353Z,30.07
2019-04-30T03:41:27.114Z,30.73
2019-04-30T03:42:15.275Z,32.43
2019-04-30T03:43:04.337Z,34.00
2019-04-30T03:43:50.679Z,32.77
2019-04-30T03:44:39.707Z,31.13
2019-04-30T03:45:24.513Z,29.83
2019-04-30T03:46:11.073Z,31.50
2019-04-30T03:46:59.346Z,31.57
2019-04-30T03:47:45.521Z,34.57
2019-04-30T03:48:32.131Z,31.40
2019-04-30T03:49:20.265Z,32.27
2019-04-30T03:50:09.155Z,32.37
2019-04-30T03:50:56.913Z,32.27
2019-04-30T03:51:42.978Z,30.33
2019-04-30T03:52:29.512Z,30.17
2019-04-30T03:53:15.967Z,31.10
2019-04-30T03:54:02.878Z,30.13
2019-04-30T03:54:49.520Z,30.20
2019-04-30T03:55:39.967Z,31.30
2019-04-30T03:56:26.484Z,32.03
2019-04-30T03:57:12.744Z,32.17
2019-04-30T03:58:00.149Z,31.40
2019-04-30T03:58:46.214Z,31.17
2019-04-30T03:59:32.327Z,31.60
2019-04-30T04:00:36.376Z,30.97
2019-04-30T04:01:36.473Z,30.07
2019-04-30T04:02:40.859Z,30.23
2019-04-30T04:03:29.195Z,31.13
2019-04-30T04:04:20.555Z,30.73
2019-04-30T04:05:26.187Z,31.37
2019-04-30T04:06:22.398Z,31.23
2019-04-30T04:07:39.355Z,34.63
2019-04-30T04:08:43.145Z,33.70
2019-04-30T04:09:32.080Z,30.57
2019-04-30T04:10:30.398Z,33.30
2019-04-30T04:11:24.997Z,32.13
2019-04-30T04:12:23.884Z,34.10
2019-04-30T04:13:10.416Z,29.63
2019-04-30T04:13:59.514Z,31.87
2019-04-30T04:14:44.764Z,32.43
2019-04-30T04:15:31.297Z,34.47
2019-04-30T04:16:19.502Z,31.73
2019-04-30T04:17:05.357Z,32.50
2019-04-30T04:17:51.915Z,31.67
2019-04-30T04:18:40.243Z,32.23
2019-04-30T04:19:29.125Z,34.67
2019-04-30T04:20:15.228Z,32.00
2019-04-30T04:21:11.684Z,33.60
2019-04-30T04:21:52.503Z,32.63
2019-04-30T04:22:40.375Z,30.37
2019-04-30T04:23:32.327Z,31.93
2019-04-30T04:24:14.314Z,32.77
2019-04-30T04:25:00.863Z,35.07
2019-04-30T04:25:49.897Z,31.40
2019-04-30T04:26:35.336Z,30.47
2019-04-30T04:27:21.878Z,32.23
2019-04-30T04:28:10.102Z,30.57
2019-04-30T04:28:59.190Z,30.37
2019-04-30T04:29:44.753Z,30.87
2019-04-30T04:30:31.218Z,32.53
2019-04-30T04:31:19.264Z,32.77
2019-04-30T04:32:05.500Z,31.87
2019-04-30T04:32:52.070Z,30.37
2019-04-30T04:33:39.570Z,30.57
2019-04-30T04:34:25.902Z,30.70
2019-04-30T04:35:13.066Z,32.27
2019-04-30T04:35:59.851Z,29.17
2019-04-30T04:36:46.146Z,31.03
2019-04-30T04:37:33.680Z,32.50
2019-04-30T04:38:20.578Z,30.77
2019-04-30T04:39:09.792Z,33.83
2019-04-30T04:39:55.892Z,32.03
2019-04-30T04:40:42.381Z,32.43
2019-04-30T04:41:31.901Z,30.33
2019-04-30T04:42:19.361Z,31.10
2019-04-30T04:43:06.068Z,32.83
2019-04-30T04:43:52.428Z,31.07
2019-04-30T04:44:39.943Z,31.53
2019-04-30T04:45:25.849Z,31.37
2019-04-30T04:46:12.203Z,31.30
2019-04-30T04:47:00.153Z,31.43
2019-04-30T04:47:46.524Z,30.80
2019-04-30T04:48:33.266Z,29.73
2019-04-30T04:49:20.571Z,28.57
2019-04-30T04:50:10.047Z,29.83
2019-04-30T04:50:56.400Z,28.83
2019-04-30T04:51:42.935Z,30.20
2019-04-30T04:52:31.420Z,30.17
2019-04-30T04:53:19.735Z,29.97
2019-04-30T04:54:05.940Z,31.83
2019-04-30T04:54:52.270Z,31.57
2019-04-30T04:55:40.055Z,33.67
2019-04-30T04:56:26.482Z,33.27
2019-04-30T04:57:17.999Z,32.00
2019-04-30T04:58:01.204Z,30.50
2019-04-30T04:58:49.977Z,30.40
2019-04-30T04:59:35.852Z,30.30
2019-04-30T05:00:23.856Z,31.50
2019-04-30T05:01:11.845Z,32.87
2019-04-30T05:02:00.288Z,35.77
2019-04-30T05:02:59.374Z,32.37
2019-04-30T05:03:45.401Z,31.87
2019-04-30T05:04:31.678Z,33.10
2019-04-30T05:05:19.399Z,34.37
2019-04-30T05:06:05.781Z,34.10
2019-04-30T05:06:51.598Z,31.73
2019-04-30T05:07:39.737Z,31.90
2019-04-30T05:08:25.724Z,32.20
2019-04-30T05:09:12.111Z,32.23
2019-04-30T05:10:00.598Z,34.47
2019-04-30T05:10:45.706Z,33.77
2019-04-30T05:11:32.424Z,33.50
2019-04-30T05:12:19.149Z,31.17
2019-04-30T05:13:05.918Z,30.40
2019-04-30T05:13:53.615Z,32.23
2019-04-30T05:14:39.960Z,32.50
2019-04-30T05:15:26.686Z,32.17
2019-04-30T05:16:13.258Z,32.00
2019-04-30T05:17:00.155Z,32.23
2019-04-30T05:17:49.286Z,32.90
2019-04-30T05:18:35.849Z,31.77
2019-04-30T05:19:21.984Z,32.57
2019-04-30T05:20:14.352Z,34.47
2019-04-30T05:21:03.602Z,33.80
2019-04-30T05:21:51.702Z,32.10
2019-04-30T05:22:38.942Z,36.07
2019-04-30T05:23:25.635Z,34.50
2019-04-30T05:24:11.937Z,35.60
2019-04-30T05:24:58.870Z,32.13
2019-04-30T05:25:45.605Z,34.80
2019-04-30T05:26:32.269Z,36.83
2019-04-30T05:27:19.799Z,32.60
2019-04-30T05:28:08.633Z,32.17
2019-04-30T05:28:55.435Z,33.53
2019-04-30T05:29:41.537Z,33.37
2019-04-30T05:30:29.534Z,36.13
2019-04-30T05:31:15.755Z,32.57
2019-04-30T05:32:02.480Z,34.10
2019-04-30T05:32:50.465Z,35.13
2019-04-30T05:33:36.853Z,34.70
2019-04-30T05:34:23.595Z,31.67
2019-04-30T05:35:09.877Z,33.90
2019-04-30T05:35:56.610Z,32.10
2019-04-30T05:36:43.755Z,31.53
2019-04-30T05:37:29.963Z,33.27
2019-04-30T05:38:15.971Z,32.93
2019-04-30T05:39:02.287Z,37.10
2019-04-30T05:39:48.917Z,31.33
2019-04-30T05:40:34.910Z,33.63
2019-04-30T05:41:20.933Z,36.77
2019-04-30T05:42:08.798Z,32.23
2019-04-30T05:42:54.898Z,32.87
2019-04-30T05:43:40.965Z,32.03
2019-04-30T05:44:26.986Z,30.87
2019-04-30T05:45:13.452Z,35.47
2019-04-30T05:45:59.588Z,34.33
2019-04-30T05:46:45.855Z,33.63
2019-04-30T05:47:32.182Z,32.53
2019-04-30T05:48:18.588Z,31.33
2019-04-30T05:49:05.052Z,34.20
2019-04-30T05:49:51.162Z,32.93
2019-04-30T05:50:39.151Z,31.20
2019-04-30T05:51:26.213Z,32.27
2019-04-30T05:52:12.548Z,30.93
2019-04-30T05:52:59.213Z,30.30
2019-04-30T05:53:45.475Z,33.73
2019-04-30T05:54:31.714Z,30.13
2019-04-30T05:55:19.837Z,30.17
2019-04-30T05:56:06.739Z,34.33
2019-04-30T05:56:53.055Z,32.83
2019-04-30T05:57:52.571Z,31.23
2019-04-30T05:58:29.776Z,30.37
2019-04-30T05:59:20.395Z,31.90
2019-04-30T06:00:05.949Z,31.77
2019-04-30T06:00:52.064Z,33.53
2019-04-30T06:01:39.483Z,30.40
2019-04-30T06:02:25.826Z,31.73
2019-04-30T06:03:24.555Z,30.83
2019-04-30T06:04:00.921Z,31.07
2019-04-30T06:04:48.660Z,31.40
2019-04-30T06:05:34.571Z,31.30
2019-04-30T06:06:20.369Z,30.03
2019-04-30T06:07:08.590Z,31.80
2019-04-30T06:07:55.471Z,31.23
2019-04-30T06:09:03.987Z,31.10
2019-04-30T06:09:48.623Z,32.27
2019-04-30T06:10:43.429Z,33.90
2019-04-30T06:11:49.201Z,31.27
2019-04-30T06:12:49.470Z,31.87
2019-04-30T06:14:01.094Z,30.07
2019-04-30T06:14:54.203Z,31.50
2019-04-30T06:15:52.370Z,30.90
2019-04-30T06:16:39.343Z,31.07
2019-04-30T06:17:29.384Z,29.07
2019-04-30T06:18:15.654Z,29.00
2019-04-30T06:19:01.758Z,32.10
2019-04-30T06:19:48.771Z,30.87
2019-04-30T06:20:35.750Z,32.10
2019-04-30T06:21:21.968Z,29.87
2019-04-30T06:22:10.724Z,30.77
2019-04-30T06:22:56.620Z,31.30
2019-04-30T06:23:42.971Z,31.07
2019-04-30T06:24:30.255Z,29.13
2019-04-30T06:25:27.191Z,33.43
2019-04-30T06:26:09.624Z,29.27
2019-04-30T06:26:52.140Z,29.97
2019-04-30T06:27:38.787Z,29.67
2019-04-30T06:28:25.214Z,30.17
2019-04-30T06:29:11.419Z,28.53
2019-04-30T06:29:58.918Z,29.40
2019-04-30T06:30:45.605Z,30.90
2019-04-30T06:31:39.708Z,30.93
2019-04-30T06:32:23.378Z,28.87
2019-04-30T06:33:11.824Z,31.53
2019-04-30T06:33:58.632Z,29.90
2019-04-30T06:34:46.103Z,28.40
2019-04-30T06:35:32.029Z,31.03
2019-04-30T06:36:19.196Z,32.50
2019-04-30T06:37:05.229Z,30.13
2019-04-30T06:37:51.552Z,30.90
2019-04-30T06:38:38.665Z,29.70
2019-04-30T06:39:25.044Z,28.60
2019-04-30T06:40:11.767Z,29.27
2019-04-30T06:40:58.884Z,28.67
2019-04-30T06:41:45.434Z,30.07
2019-04-30T06:42:32.224Z,27.47
2019-04-30T06:43:20.407Z,27.37
2019-04-30T06:44:06.534Z,27.90
2019-04-30T06:44:52.954Z,28.60
2019-04-30T06:45:39.320Z,28.17
2019-04-30T06:46:25.179Z,28.67
2019-04-30T06:47:12.871Z,28.90
2019-04-30T06:48:00.999Z,29.03
2019-04-30T06:48:50.889Z,28.27
2019-04-30T06:49:39.110Z,28.07
2019-04-30T06:50:24.912Z,29.73
2019-04-30T06:51:11.275Z,28.27
2019-04-30T06:51:58.824Z,27.33
2019-04-30T06:52:54.154Z,27.20
2019-04-30T06:53:33.625Z,26.87
2019-04-30T06:54:20.070Z,27.47
2019-04-30T06:55:06.237Z,30.07
2019-04-30T06:55:52.471Z,26.50
2019-04-30T06:56:38.917Z,27.00
2019-04-30T06:57:24.855Z,26.57
2019-04-30T06:58:15.108Z,26.00
2019-04-30T06:58:59.087Z,26.43
2019-04-30T06:59:45.027Z,25.57
2019-04-30T07:00:39.988Z,25.37
2019-04-30T07:01:26.480Z,25.73
2019-04-30T07:02:12.359Z,26.40
2019-04-30T07:02:59.089Z,25.83
2019-04-30T07:03:45.087Z,24.40
2019-04-30T07:04:32.072Z,23.37
2019-04-30T07:05:18.882Z,25.63
2019-04-30T07:06:05.516Z,23.90
2019-04-30T07:06:52.440Z,23.50
2019-04-30T07:07:41.758Z,24.70
2019-04-30T07:08:55.986Z,21.57
2019-04-30T07:09:58.340Z,22.53
2019-04-30T07:10:53.096Z,22.43
2019-04-30T07:11:33.423Z,22.20
2019-04-30T07:12:25.627Z,22.47
2019-04-30T07:13:19.031Z,20.57
2019-04-30T07:14:09.698Z,22.03
2019-04-30T07:14:56.008Z,21.87
2019-04-30T07:15:42.379Z,20.33
2019-04-30T07:16:29.856Z,21.27
2019-04-30T07:17:15.954Z,21.07
2019-04-30T07:18:02.701Z,21.30
2019-04-30T07:18:49.035Z,26.17
2019-04-30T07:19:51.860Z,22.40
2019-04-30T07:20:23.401Z,21.63
2019-04-30T07:21:09.788Z,20.20
2019-04-30T07:21:55.484Z,21.47
2019-04-30T07:22:49.817Z,21.20
2019-04-30T07:23:29.905Z,20.30
2019-04-30T07:24:16.148Z,21.97
2019-04-30T07:25:02.423Z,22.53
2019-04-30T07:25:51.383Z,20.97
2019-04-30T07:26:38.813Z,19.90
2019-04-30T07:27:25.580Z,23.50
2019-04-30T07:28:12.116Z,19.90
2019-04-30T07:29:01.964Z,21.17
2019-04-30T07:29:47.198Z,26.50
2019-04-30T07:30:33.735Z,22.73
2019-04-30T07:31:20.196Z,24.33
2019-04-30T07:32:09.230Z,23.37
2019-04-30T07:32:54.868Z,23.30
2019-04-30T07:33:41.533Z,24.90
2019-04-30T07:34:30.276Z,24.53
2019-04-30T07:35:19.322Z,24.57
2019-04-30T07:36:04.977Z,23.50
2019-04-30T07:37:10.451Z,25.30
2019-04-30T07:37:39.308Z,25.63
2019-04-30T07:38:25.327Z,23.17
2019-04-30T07:39:11.539Z,25.37
2019-04-30T07:39:58.893Z,25.37
2019-04-30T07:40:45.697Z,27.47
2019-04-30T07:41:32.167Z,26.10
2019-04-30T07:42:19.267Z,28.50
2019-04-30T07:43:05.867Z,27.47
2019-04-30T07:43:52.501Z,28.30
2019-04-30T07:44:39.530Z,29.60
2019-04-30T07:45:25.935Z,30.70
2019-04-30T07:46:12.315Z,29.03
2019-04-30T07:46:59.377Z,28.87
2019-04-30T07:47:46.361Z,28.77
2019-04-30T07:48:32.688Z,27.90
2019-04-30T07:49:20.576Z,28.07
2019-04-30T07:50:09.938Z,28.50
2019-04-30T07:50:55.226Z,29.13
2019-04-30T07:51:42.475Z,29.57
2019-04-30T07:52:33.275Z,30.00
2019-04-30T07:53:18.762Z,28.87
2019-04-30T07:54:05.083Z,30.27
2019-04-30T07:54:51.951Z,31.57
2019-04-30T07:55:39.306Z,31.27
2019-04-30T07:56:29.271Z,30.33
2019-04-30T07:57:13.052Z,31.07
2019-04-30T07:57:59.517Z,29.03
2019-04-30T07:58:45.503Z,33.60
2019-04-30T07:59:31.257Z,31.67
2019-04-30T08:00:18.847Z,31.70
2019-04-30T08:01:04.749Z,31.57
2019-04-30T08:02:04.140Z,30.17
2019-04-30T08:02:45.168Z,30.27
2019-04-30T08:03:56.427Z,28.73
2019-04-30T08:04:54.089Z,28.43
2019-04-30T08:05:42.020Z,25.90
2019-04-30T08:06:31.132Z,26.10
2019-04-30T08:07:16.534Z,25.93
2019-04-30T08:08:17.691Z,25.00
2019-04-30T08:08:56.952Z,26.62
2019-04-30T08:09:42.086Z,25.40
2019-04-30T08:10:26.965Z,24.63
2019-04-30T08:11:23.797Z,26.23
2019-04-30T08:12:01.685Z,26.17
2019-04-30T08:12:50.583Z,25.17
2019-04-30T08:13:36.577Z,25.15
2019-04-30T08:14:24.674Z,25.90
2019-04-30T08:15:11.012Z,25.85
2019-04-30T08:15:56.825Z,27.15
2019-04-30T08:16:43.029Z,27.45
2019-04-30T08:17:29.331Z,27.30
2019-04-30T08:18:15.517Z,29.65
2019-04-30T08:19:01.828Z,29.50
2019-04-30T08:19:48.967Z,30.55
2019-04-30T08:20:35.045Z,30.27
2019-04-30T08:21:21.445Z,28.40
2019-04-30T08:22:09.569Z,29.18
2019-04-30T08:22:55.580Z,28.90
2019-04-30T08:23:41.868Z,32.13
2019-04-30T08:24:29.164Z,61.13
2019-04-30T08:25:15.626Z,33.10
2019-04-30T08:26:02.295Z,32.93
2019-04-30T08:26:49.458Z,32.40
2019-04-30T08:27:35.897Z,32.05
2019-04-30T08:28:22.228Z,29.80
2019-04-30T08:29:09.560Z,31.97
2019-04-30T08:29:55.970Z,32.98
2019-04-30T08:30:42.499Z,33.23
2019-04-30T08:31:29.339Z,32.53
2019-04-30T08:32:15.324Z,31.85
2019-04-30T08:33:01.616Z,33.25
2019-04-30T08:33:49.049Z,31.65
2019-04-30T08:34:35.317Z,32.23
2019-04-30T08:35:21.451Z,30.82
2019-04-30T08:36:09.443Z,30.60
2019-04-30T08:36:56.348Z,30.23
2019-04-30T08:37:42.794Z,30.30
2019-04-30T08:38:30.062Z,31.75
2019-04-30T08:39:16.070Z,30.62
2019-04-30T08:40:03.526Z,29.23
2019-04-30T08:40:56.173Z,32.17
2019-04-30T08:41:39.265Z,30.52
2019-04-30T08:42:33.274Z,30.45
2019-04-30T08:43:13.159Z,29.90
2019-04-30T08:43:59.949Z,30.80
2019-04-30T08:44:48.426Z,28.80
2019-04-30T08:45:34.842Z,28.30
2019-04-30T08:46:21.086Z,27.95
2019-04-30T08:47:08.645Z,27.98
2019-04-30T08:47:55.008Z,29.30
2019-04-30T08:48:50.302Z,28.62
2019-04-30T08:49:30.533Z,28.25
2019-04-30T08:50:19.481Z,27.70
2019-04-30T08:51:05.493Z,28.15
2019-04-30T08:51:51.458Z,27.93
2019-04-30T08:52:39.365Z,29.25
2019-04-30T08:53:29.419Z,26.65
2019-04-30T08:54:13.237Z,27.85
2019-04-30T08:55:12.746Z,26.68
2019-04-30T08:55:49.099Z,26.93
2019-04-30T08:56:34.759Z,26.40
2019-04-30T08:57:21.317Z,27.98
2019-04-30T08:58:12.005Z,26.62
2019-04-30T08:58:55.012Z,26.42
2019-04-30T08:59:41.141Z,26.10
2019-04-30T09:00:29.585Z,25.72
2019-04-30T09:01:16.572Z,25.12
2019-04-30T09:02:15.368Z,27.05
2019-04-30T09:02:51.417Z,29.12
2019-04-30T09:03:39.131Z,27.05
2019-04-30T09:04:29.100Z,27.95
2019-04-30T09:05:21.407Z,26.77
2019-04-30T09:06:33.036Z,25.75
2019-04-30T09:07:19.665Z,27.07
2019-04-30T09:08:06.517Z,27.27
2019-04-30T09:08:59.334Z,27.62
2019-04-30T09:09:45.956Z,26.37
2019-04-30T09:10:32.207Z,29.65
2019-04-30T09:11:25.292Z,28.65
2019-04-30T09:12:06.547Z,27.75
2019-04-30T09:12:52.835Z,28.50
2019-04-30T09:13:39.279Z,29.57
2019-04-30T09:14:25.287Z,30.20
2019-04-30T09:15:11.809Z,27.62
2019-04-30T09:15:59.370Z,26.65
2019-04-30T09:16:45.600Z,28.00
2019-04-30T09:17:31.696Z,28.15
2019-04-30T09:18:19.092Z,28.65
2019-04-30T09:19:05.059Z,29.45
2019-04-30T09:19:50.800Z,26.42
2019-04-30T09:20:36.855Z,27.45
2019-04-30T09:21:23.265Z,29.02
2019-04-30T09:22:15.030Z,26.25
2019-04-30T09:22:59.357Z,28.70
2019-04-30T09:23:51.906Z,27.15
2019-04-30T09:24:32.759Z,28.42
2019-04-30T09:25:19.546Z,29.37
2019-04-30T09:26:06.099Z,27.65
2019-04-30T09:26:52.235Z,27.22
2019-04-30T09:27:39.757Z,27.05
2019-04-30T09:28:25.837Z,28.57
2019-04-30T09:29:12.195Z,26.80
2019-04-30T09:29:58.806Z,26.27
2019-04-30T09:30:44.968Z,28.87
2019-04-30T09:31:31.231Z,25.70
2019-04-30T09:32:19.336Z,24.50
2019-04-30T09:33:05.568Z,28.17
2019-04-30T09:33:51.250Z,26.40
2019-04-30T09:34:38.464Z,27.15
2019-04-30T09:35:25.666Z,25.88
2019-04-30T09:36:11.820Z,26.02
2019-04-30T09:36:58.924Z,26.52
2019-04-30T09:37:45.135Z,28.90
2019-04-30T09:38:31.180Z,26.50
2019-04-30T09:39:19.491Z,27.30
2019-04-30T09:40:15.330Z,25.57
2019-04-30T09:40:53.465Z,26.17
2019-04-30T09:41:41.147Z,26.87
2019-04-30T09:42:29.464Z,26.02
2019-04-30T09:43:15.124Z,24.77
2019-04-30T09:44:01.362Z,26.20
2019-04-30T09:44:49.282Z,25.05
2019-04-30T09:45:35.221Z,24.77
2019-04-30T09:46:26.691Z,24.07
2019-04-30T09:47:09.681Z,25.02
2019-04-30T09:47:55.905Z,25.02
2019-04-30T09:48:42.072Z,24.87
2019-04-30T09:49:29.389Z,25.17
2019-04-30T09:50:15.583Z,23.00
2019-04-30T09:51:02.065Z,24.57
2019-04-30T09:51:49.503Z,25.32
2019-04-30T09:52:36.648Z,25.45
2019-04-30T09:53:23.497Z,24.43
2019-04-30T09:54:12.381Z,24.77
2019-04-30T09:54:59.255Z,25.00
2019-04-30T09:55:45.263Z,26.57
2019-04-30T09:56:31.247Z,27.45
2019-04-30T09:57:19.290Z,25.55
2019-04-30T09:58:16.690Z,27.65
2019-04-30T09:58:53.355Z,24.87
2019-04-30T09:59:39.626Z,25.37
2019-04-30T10:00:25.746Z,25.48
2019-04-30T10:01:12.151Z,25.80
2019-04-30T10:01:58.157Z,26.55
2019-04-30T10:02:43.827Z,24.72
2019-04-30T10:03:31.251Z,27.90
2019-04-30T10:04:19.793Z,26.75
2019-04-30T10:05:05.952Z,24.95
2019-04-30T10:05:51.887Z,26.15
2019-04-30T10:06:40.203Z,25.90
2019-04-30T10:07:26.203Z,27.70
2019-04-30T10:08:12.408Z,27.00
2019-04-30T10:08:59.627Z,28.38
2019-04-30T10:09:45.700Z,25.65
2019-04-30T10:10:36.553Z,26.27
2019-04-30T10:11:45.165Z,25.60
2019-04-30T10:12:31.035Z,28.57
2019-04-30T10:13:17.278Z,26.50
2019-04-30T10:14:03.822Z,27.80
2019-04-30T10:14:49.742Z,27.37
2019-04-30T10:15:56.175Z,26.15
2019-04-30T10:16:51.673Z,29.32
2019-04-30T10:17:41.737Z,28.38
2019-04-30T10:18:27.600Z,28.07
2019-04-30T10:19:15.055Z,28.77
2019-04-30T10:20:00.996Z,29.18